createdAt,value
2019-01-11T00:03:43.080Z,-0.04
2019-01-11T00:08:47.154Z,0.09
2019-01-11T00:13:51.511Z,0.04
2019-01-11T00:18:55.934Z,-0.07
2019-01-11T00:23:59.981Z,-0.04
2019-01-11T00:29:04.361Z,-0.01
2019-01-11T00:34:08.402Z,-0.11
2019-01-11T00:39:12.749Z,-0.08
2019-01-11T00:44:16.819Z,-0.06
2019-01-11T00:49:20.880Z,0.00
2019-01-11T00:54:26.047Z,-0.08
2019-01-11T00:59:30.103Z,-0.09
2019-01-11T01:04:34.158Z,-0.10
2019-01-11T01:09:38.154Z,-0.13
2019-01-11T01:14:42.309Z,-0.13
2019-01-11T01:19:48.556Z,-0.14
2019-01-11T01:24:52.964Z,-0.20
2019-01-11T01:29:57.079Z,-0.12
2019-01-11T01:35:01.435Z,-0.22
2019-01-11T01:40:06.614Z,-0.25
2019-01-11T01:45:12.323Z,-0.12
2019-01-11T01:50:16.390Z,-0.06
2019-01-11T01:55:20.433Z,-0.12
2019-01-11T02:00:24.770Z,-0.20
2019-01-11T02:05:28.906Z,-0.12
2019-01-11T02:10:33.367Z,-0.08
2019-01-11T02:15:37.423Z,-0.13
2019-01-11T02:20:41.746Z,-0.17
2019-01-11T02:25:46.393Z,-0.09
2019-01-11T02:30:50.450Z,-0.08
2019-01-11T02:35:54.517Z,0.05
2019-01-11T02:40:59.139Z,-0.01
2019-01-11T02:46:03.942Z,-0.05
2019-01-11T02:51:08.085Z,0.02
2019-01-11T02:56:12.432Z,-0.01
2019-01-11T03:01:16.478Z,0.02
2019-01-11T03:06:20.791Z,0.02
2019-01-11T03:11:25.397Z,-0.02
2019-01-11T03:16:29.424Z,0.00
2019-01-11T03:21:33.468Z,0.02
2019-01-11T03:26:37.534Z,0.05
2019-01-11T03:31:41.596Z,-0.01
2019-01-11T03:36:45.645Z,0.09
2019-01-11T03:41:49.716Z,0.03
2019-01-11T03:46:53.773Z,0.00
2019-01-11T03:51:57.823Z,0.05
2019-01-11T03:57:01.856Z,0.08
2019-01-11T04:02:05.892Z,0.00
2019-01-11T04:07:10.028Z,-0.01
2019-01-11T04:12:14.044Z,-0.06
2019-01-11T04:17:18.068Z,-0.07
2019-01-11T04:22:22.237Z,-0.07
2019-01-11T04:27:26.575Z,-0.07
2019-01-11T04:32:30.642Z,-0.09
2019-01-11T04:37:34.687Z,-0.07
2019-01-11T04:42:39.049Z,-0.01
2019-01-11T04:47:43.101Z,-0.06
2019-01-11T04:52:47.437Z,-0.04
2019-01-11T04:57:51.497Z,-0.08
2019-01-11T05:02:55.574Z,-0.07
2019-01-11T05:07:59.608Z,-0.02
2019-01-11T05:13:03.635Z,-0.05
2019-01-11T05:18:07.709Z,-0.04
2019-01-11T05:23:11.820Z,0.07
2019-01-11T05:28:16.020Z,-0.02
2019-01-11T05:33:20.378Z,-0.01
2019-01-11T05:38:24.551Z,0.02
2019-01-11T05:43:28.598Z,-0.03
2019-01-11T05:48:32.934Z,0.03
2019-01-11T05:53:37.411Z,0.04
2019-01-11T05:58:41.913Z,0.04
2019-01-11T06:03:46.013Z,0.04
2019-01-11T06:08:50.131Z,0.03
2019-01-11T06:13:54.171Z,0.01
2019-01-11T06:18:58.365Z,0.05
2019-01-11T06:24:02.463Z,0.06
2019-01-11T06:29:07.009Z,0.09
2019-01-11T06:34:11.617Z,0.09
2019-01-11T06:39:17.603Z,0.03
2019-01-11T06:44:22.749Z,0.13
2019-01-11T06:49:28.934Z,0.12
2019-01-11T06:54:33.238Z,0.04
2019-01-11T06:59:37.625Z,0.06
2019-01-11T07:04:41.727Z,0.09
2019-01-11T07:09:46.075Z,0.07
2019-01-11T07:14:51.997Z,0.12
2019-01-11T07:19:56.108Z,0.13
2019-01-11T07:25:00.515Z,0.15
2019-01-11T07:30:05.934Z,0.20
2019-01-11T07:35:10.311Z,0.16
2019-01-11T07:40:14.737Z,0.13
2019-01-11T07:45:18.801Z,0.21
2019-01-11T07:50:22.830Z,0.22
2019-01-11T07:55:27.087Z,0.16
2019-01-11T08:00:31.141Z,0.25
2019-01-11T08:05:35.195Z,0.23
2019-01-11T08:10:39.509Z,0.22
2019-01-11T08:15:43.598Z,0.26
2019-01-11T08:20:47.631Z,0.30
2019-01-11T08:25:51.712Z,0.32
2019-01-11T08:30:55.823Z,0.35
2019-01-11T08:35:59.930Z,0.32
2019-01-11T08:41:04.075Z,0.38
2019-01-11T08:46:08.510Z,0.39
2019-01-11T08:51:12.546Z,0.44
2019-01-11T08:56:16.982Z,0.51
2019-01-11T09:01:21.050Z,0.56
2019-01-11T09:06:25.078Z,0.62
2019-01-11T09:11:29.139Z,0.58
2019-01-11T09:16:34.658Z,0.59
2019-01-11T09:21:41.757Z,0.63
2019-01-11T09:26:44.530Z,0.61
2019-01-11T09:31:48.580Z,0.58
2019-01-11T09:36:54.812Z,0.61
2019-01-11T09:41:58.820Z,0.68
2019-01-11T09:47:02.916Z,0.63
2019-01-11T09:52:06.925Z,0.76
2019-01-11T09:57:11.021Z,0.87
2019-01-11T10:02:15.042Z,1.02
2019-01-11T10:07:19.268Z,1.00
2019-01-11T10:12:23.568Z,0.97
2019-01-11T10:17:27.638Z,0.98
2019-01-11T10:22:31.616Z,1.06
2019-01-11T10:27:35.715Z,0.97
2019-01-11T10:32:39.755Z,0.98
2019-01-11T10:37:43.781Z,0.97
2019-01-11T10:42:47.985Z,1.00
2019-01-11T10:47:51.995Z,1.10
2019-01-11T10:52:56.091Z,1.16
2019-01-11T10:58:00.151Z,1.20
2019-01-11T11:03:04.325Z,1.29
2019-01-11T11:08:08.345Z,1.37
2019-01-11T11:13:12.525Z,1.51
2019-01-11T11:18:16.576Z,1.49
2019-01-11T11:23:20.619Z,1.49
2019-01-11T11:28:24.891Z,1.49
2019-01-11T11:33:29.012Z,1.49
2019-01-11T11:38:33.136Z,1.63
2019-01-11T11:43:37.139Z,1.75
2019-01-11T11:48:41.162Z,1.69
2019-01-11T11:53:45.191Z,1.77
2019-01-11T11:58:49.233Z,1.73
2019-01-11T12:03:53.288Z,1.90
2019-01-11T12:08:57.361Z,2.03
2019-01-11T12:14:01.421Z,2.02
2019-01-11T12:19:05.471Z,2.06
2019-01-11T12:24:09.808Z,2.10
2019-01-11T12:29:13.839Z,2.19
2019-01-11T12:34:17.900Z,2.31
2019-01-11T12:39:22.125Z,2.47
2019-01-11T12:44:26.306Z,2.58
2019-01-11T12:49:30.440Z,2.67
2019-01-11T12:54:35.890Z,2.74
2019-01-11T12:59:39.904Z,2.82
2019-01-11T13:04:44.011Z,2.89
2019-01-11T13:09:48.143Z,2.99
2019-01-11T13:14:52.182Z,3.21
2019-01-11T13:19:56.225Z,3.36
2019-01-11T13:25:00.562Z,3.36
2019-01-11T13:30:06.267Z,3.41
2019-01-11T13:35:10.432Z,3.34
2019-01-11T13:40:20.041Z,3.46
2019-01-11T13:45:24.436Z,3.51
2019-01-11T13:50:36.154Z,3.64
2019-01-11T13:55:40.182Z,3.69
2019-01-11T14:00:44.191Z,3.75
2019-01-11T14:05:48.258Z,3.72
2019-01-11T14:10:52.289Z,3.67
2019-01-11T14:15:56.358Z,3.75
2019-01-11T14:21:01.268Z,3.79
2019-01-11T14:26:05.309Z,3.79
2019-01-11T14:31:09.326Z,3.66
2019-01-11T14:36:13.444Z,3.73
2019-01-11T14:41:17.502Z,3.72
2019-01-11T14:46:21.588Z,3.77
2019-01-11T14:51:25.862Z,3.79
2019-01-11T14:56:29.922Z,3.92
2019-01-11T15:01:33.956Z,3.95
2019-01-11T15:06:38.256Z,4.02
2019-01-11T15:11:42.840Z,4.13
2019-01-11T15:16:47.131Z,4.15
2019-01-11T15:21:51.221Z,4.23
2019-01-11T15:26:55.616Z,4.22
2019-01-11T15:31:59.894Z,4.33
2019-01-11T15:37:04.034Z,4.34
2019-01-11T15:42:08.109Z,4.41
2019-01-11T15:47:12.267Z,4.45
2019-01-11T15:52:16.385Z,4.50
2019-01-11T15:57:23.161Z,4.54
2019-01-11T16:02:27.188Z,4.60
2019-01-11T16:07:31.228Z,4.60
2019-01-11T16:12:54.047Z,4.70
2019-01-11T16:18:01.121Z,4.68
2019-01-11T16:23:05.439Z,4.78
2019-01-11T16:28:09.806Z,4.80
2019-01-11T16:33:13.993Z,4.89
2019-01-11T16:38:18.093Z,4.87
2019-01-11T16:43:22.154Z,4.91
2019-01-11T16:48:26.508Z,5.01
2019-01-11T16:53:30.561Z,5.05
2019-01-11T16:58:35.020Z,5.02
2019-01-11T17:03:39.031Z,5.12
2019-01-11T17:08:43.065Z,5.09
2019-01-11T17:13:47.413Z,5.17
2019-01-11T17:18:51.505Z,5.16
2019-01-11T17:23:55.773Z,5.19
2019-01-11T17:28:59.898Z,5.27
2019-01-11T17:34:04.629Z,5.27
2019-01-11T17:39:09.024Z,5.31
2019-01-11T17:44:13.085Z,5.34
2019-01-11T17:49:17.189Z,5.37
2019-01-11T17:54:21.789Z,5.37
2019-01-11T17:59:25.838Z,5.44
2019-01-11T18:04:29.935Z,5.39
2019-01-11T18:09:33.948Z,5.40
2019-01-11T18:14:38.010Z,5.45
2019-01-11T18:19:42.377Z,5.49
2019-01-11T18:24:46.559Z,5.51
2019-01-11T18:29:50.834Z,5.66
2019-01-11T18:34:55.253Z,5.82
2019-01-11T18:39:59.335Z,5.78
2019-01-11T18:45:03.879Z,5.84
2019-01-11T18:50:11.484Z,5.82
2019-01-11T18:55:15.585Z,5.76
2019-01-11T19:00:21.227Z,5.75
2019-01-11T19:05:25.238Z,5.75
2019-01-11T19:10:30.516Z,5.70
2019-01-11T19:15:34.558Z,5.70
2019-01-11T19:20:38.606Z,5.64
2019-01-11T19:25:42.663Z,5.64
2019-01-11T19:30:46.706Z,5.63
2019-01-11T19:35:50.836Z,5.64
2019-01-11T19:40:54.929Z,5.61
2019-01-11T19:45:58.943Z,5.61
2019-01-11T19:51:03.644Z,5.59
2019-01-11T19:56:08.074Z,5.54
2019-01-11T20:01:12.174Z,5.51
2019-01-11T20:06:16.489Z,5.49
2019-01-11T20:11:20.738Z,5.50
2019-01-11T20:16:24.941Z,5.43
2019-01-11T20:21:29.467Z,5.47
2019-01-11T20:26:33.872Z,5.46
2019-01-11T20:31:38.396Z,5.46
2019-01-11T20:36:50.252Z,5.47
2019-01-11T20:41:54.823Z,5.44
2019-01-11T20:46:59.486Z,5.45
2019-01-11T20:52:04.153Z,5.42
2019-01-11T20:57:08.274Z,5.45
2019-01-11T21:02:12.469Z,5.32
2019-01-11T21:07:16.582Z,5.31
2019-01-11T21:12:22.172Z,5.35
2019-01-11T21:17:27.084Z,5.29
2019-01-11T21:22:32.752Z,5.40
2019-01-11T21:27:37.220Z,5.29
2019-01-11T21:32:41.358Z,5.33
2019-01-11T21:37:45.875Z,5.32
2019-01-11T21:42:50.760Z,5.35
2019-01-11T21:47:55.191Z,5.31
2019-01-11T21:52:59.420Z,5.30
2019-01-11T21:58:04.463Z,5.27
2019-01-11T22:03:12.672Z,5.28
2019-01-11T22:08:17.307Z,5.22
2019-01-11T22:13:22.209Z,5.14
2019-01-11T22:18:26.765Z,5.21
2019-01-11T22:23:31.123Z,5.23
2019-01-11T22:28:35.285Z,5.18
2019-01-11T22:33:39.740Z,5.19
2019-01-11T22:38:44.232Z,5.23
2019-01-11T22:43:48.332Z,5.16
2019-01-11T22:48:52.534Z,5.16
2019-01-11T22:53:56.890Z,5.13
2019-01-11T22:59:01.136Z,5.21
2019-01-11T23:04:05.759Z,5.20
2019-01-11T23:09:12.873Z,5.17
2019-01-11T23:14:16.931Z,5.10
2019-01-11T23:19:21.043Z,5.13
2019-01-11T23:24:25.374Z,5.18
2019-01-11T23:29:29.478Z,5.14
2019-01-11T23:34:33.520Z,5.13
2019-01-11T23:39:37.637Z,5.09
2019-01-11T23:44:41.714Z,5.05
2019-01-11T23:49:45.938Z,5.04
2019-01-11T23:54:50.009Z,5.05
2019-01-11T23:59:54.062Z,5.06
